Time;durP1;ratioP1;P1;durP2;ratioP2;P2;SDS_P1;SDS_P2;PMS_P1;PMS_P2;Temp;Humidity;BMP_temperature;BMP_pressure;BME280_temperature;BME280_humidity;BME280_pressure;Samples;Min_cycle;Max_cycle;Signal;HPM_P1;HPM_P2
2021/01/11 00:00:38;;;;;;;39.75;19.17;;;;;;;1.86;84.32;100315.81;5062364;28;20045;-53
2021/01/11 00:03:05;;;;;;;34.40;16.55;;;;;;;1.87;84.31;100316.69;5079389;28;20103;-54
2021/01/11 00:05:31;;;;;;;40.70;17.00;;;;;;;1.83;84.52;100312.31;5079531;28;20376;-54
2021/01/11 00:07:57;;;;;;;36.80;16.52;;;;;;;1.85;84.54;100310.63;5079663;28;20330;-54
2021/01/11 00:10:22;;;;;;;30.42;15.55;;;;;;;1.79;84.30;100313.13;5079808;28;20040;-54
2021/01/11 00:12:48;;;;;;;34.33;17.63;;;;;;;1.76;84.46;100301.00;5079279;28;20402;-54
2021/01/11 00:15:17;;;;;;;40.90;20.35;;;;;;;1.68;84.63;100297.41;5079565;28;20055;-53
2021/01/11 00:17:43;;;;;;;39.95;19.23;;;;;;;1.55;85.09;100306.63;5079143;28;20047;-53
2021/01/11 00:20:10;;;;;;;37.40;18.33;;;;;;;1.56;85.11;100310.06;5079161;28;20431;-53
2021/01/11 00:22:36;;;;;;;31.90;15.93;;;;;;;1.48;85.24;100306.47;5079058;28;20062;-54
2021/01/11 00:25:03;;;;;;;29.42;15.07;;;;;;;1.44;85.65;100307.28;5079032;28;20056;-53
2021/01/11 00:27:29;;;;;;;33.38;16.05;;;;;;;1.42;85.84;100304.66;5079044;28;20040;-54
2021/01/11 00:29:55;;;;;;;28.60;15.25;;;;;;;1.48;85.51;100309.94;5079240;28;20054;-54
2021/01/11 00:32:20;;;;;;;30.15;15.90;;;;;;;1.38;85.62;100305.44;5079233;28;20045;-54
2021/01/11 00:34:46;;;;;;;36.20;17.65;;;;;;;1.41;85.23;100310.66;5078339;28;20086;-54
2021/01/11 00:37:12;;;;;;;36.17;19.70;;;;;;;1.39;85.38;100305.44;5078199;28;20068;-54
2021/01/11 00:39:38;;;;;;;33.95;18.08;;;;;;;1.37;85.44;100311.44;5079086;28;20452;-53
2021/01/11 00:42:04;;;;;;;38.88;20.25;;;;;;;1.38;85.17;100308.88;5078731;28;20503;-53
2021/01/11 00:44:30;;;;;;;39.35;20.50;;;;;;;1.31;84.86;100304.44;5078167;28;20395;-54
2021/01/11 00:47:00;;;;;;;38.60;20.38;;;;;;;1.29;84.95;100306.09;5078977;28;20074;-53
2021/01/11 00:49:26;;;;;;;42.10;21.67;;;;;;;1.23;84.51;100315.44;5078953;28;20123;-54
2021/01/11 00:51:52;;;;;;;43.05;21.48;;;;;;;1.13;84.15;100312.66;5078630;28;20051;-53
2021/01/11 00:54:19;;;;;;;38.22;20.00;;;;;;;1.06;84.18;100313.38;5077977;28;20048;-53
2021/01/11 00:56:46;;;;;;;33.15;17.85;;;;;;;0.99;84.05;100324.41;5111412;28;20455;-53
2021/01/11 00:59:28;;;;;;;37.58;17.95;;;;;;;0.83;84.24;100318.03;5092347;28;20054;-54
2021/01/11 01:01:57;;;;;;;34.83;17.25;;;;;;;0.79;84.13;100323.09;5077457;28;20436;-53
2021/01/11 01:04:27;;;;;;;31.13;16.35;;;;;;;0.73;84.10;100323.81;5078365;28;20063;-53
2021/01/11 01:06:53;;;;;;;36.10;15.57;;;;;;;0.63;83.90;100327.91;5078005;28;20341;-53
2021/01/11 01:09:18;;;;;;;31.27;15.90;;;;;;;0.58;84.13;100329.47;5111454;28;20347;-53
2021/01/11 01:11:44;;;;;;;34.75;16.65;;;;;;;0.49;84.26;100325.81;5077353;28;20052;-53
2021/01/11 01:14:10;;;;;;;38.97;19.10;;;;;;;0.35;84.71;100336.66;5078399;28;20037;-53
2021/01/11 01:16:36;;;;;;;36.92;18.20;;;;;;;0.27;84.83;100333.03;5078176;28;20097;-54
2021/01/11 01:19:02;;;;;;;34.65;16.55;;;;;;;0.25;85.09;100339.00;5078054;28;20052;-53
2021/01/11 01:21:28;;;;;;;34.08;16.70;;;;;;;0.20;84.78;100333.72;5077486;28;20056;-53
2021/01/11 01:23:54;;;;;;;31.48;16.23;;;;;;;0.10;84.72;100332.63;5078325;28;20353;-53
2021/01/11 01:26:20;;;;;;;41.05;19.25;;;;;;;0.00;84.59;100333.22;5078280;28;20056;-54
2021/01/11 01:28:46;;;;;;;44.88;19.15;;;;;;;-0.07;84.62;100327.03;5077632;28;20429;-54
2021/01/11 01:31:12;;;;;;;50.25;22.35;;;;;;;-0.13;85.00;100328.56;5077835;28;20036;-54
2021/01/11 01:33:38;;;;;;;68.90;27.70;;;;;;;-0.18;84.81;100320.72;5078132;28;20044;-53
2021/01/11 01:36:04;;;;;;;64.07;28.23;;;;;;;-0.19;85.08;100329.28;5077993;28;20123;-53
2021/01/11 01:38:30;;;;;;;66.80;27.02;;;;;;;-0.29;85.06;100325.59;5110456;28;20041;-53
2021/01/11 01:40:55;;;;;;;54.30;24.20;;;;;;;-0.31;85.07;100327.25;5077961;28;20071;-53
2021/01/11 01:43:21;;;;;;;43.55;21.05;;;;;;;-0.36;85.06;100320.22;5077886;28;20142;-54
2021/01/11 01:45:47;;;;;;;39.35;19.92;;;;;;;-0.41;85.21;100319.25;5077855;28;20056;-53
2021/01/11 01:48:13;;;;;;;44.28;19.65;;;;;;;-0.49;84.98;100324.16;5077603;28;20408;-53
2021/01/11 01:50:40;;;;;;;45.78;21.73;;;;;;;-0.54;84.85;100330.91;5076604;28;20044;-53
2021/01/11 01:53:06;;;;;;;41.58;18.27;;;;;;;-0.61;85.08;100317.00;5078222;28;20433;-53
2021/01/11 01:55:31;;;;;;;45.63;20.85;;;;;;;-0.63;85.10;100317.78;5076783;28;20117;-53
2021/01/11 01:58:02;;;;;;;44.78;21.40;;;;;;;-0.65;85.25;100319.41;5077637;28;20059;-53
2021/01/11 02:00:28;;;;;;;42.35;20.17;;;;;;;-0.73;85.46;100322.66;5077334;28;20048;-53
2021/01/11 02:02:54;;;;;;;42.72;18.60;;;;;;;-0.75;85.38;100323.44;5076220;28;20453;-53
2021/01/11 02:05:20;;;;;;;40.90;19.95;;;;;;;-0.82;85.37;100318.94;5077134;28;20079;-53
2021/01/11 02:08:03;;;;;;;40.20;17.45;;;;;;;-0.87;85.33;100316.25;5077465;28;20105;-54
2021/01/11 02:10:42;;;;;;;38.40;16.48;;;;;;;-0.95;85.60;100316.00;5110028;28;20044;-53
2021/01/11 02:13:17;;;;;;;35.50;17.63;;;;;;;-1.00;86.07;100309.88;5092292;28;20044;-53
2021/01/11 02:15:52;;;;;;;37.72;18.33;;;;;;;-1.01;86.11;100312.38;5077594;28;20059;-53
2021/01/11 02:18:39;;;;;;;59.83;29.75;;;;;;;-1.02;85.79;100308.94;5076840;28;20330;-53
2021/01/11 02:21:29;;;;;;;71.75;30.15;;;;;;;-1.12;87.20;100301.78;5077163;28;20056;-53
2021/01/11 02:24:33;;;;;;;64.65;26.55;;;;;;;-1.16;86.97;100305.09;5077162;28;20045;-53
2021/01/11 02:27:36;;;;;;;63.00;26.73;;;;;;;-1.26;87.10;100305.66;5105244;28;20058;-53
2021/01/11 02:30:06;;;;;;;56.70;24.38;;;;;;;-1.30;87.92;100302.13;5076738;28;20330;-53
2021/01/11 02:32:32;;;;;;;60.47;25.92;;;;;;;-1.28;87.82;100304.72;5076677;28;20426;-54
2021/01/11 02:34:59;;;;;;;50.78;23.23;;;;;;;-1.27;88.46;100302.22;5075708;28;20055;-53
2021/01/11 02:37:25;;;;;;;52.58;24.77;;;;;;;-1.27;88.42;100298.75;5092289;28;20037;-53
2021/01/11 02:39:51;;;;;;;48.70;23.10;;;;;;;-1.23;88.71;100301.50;5109442;28;20078;-53
2021/01/11 02:42:17;;;;;;;50.75;24.73;;;;;;;-1.18;88.58;100299.91;5075907;28;20053;-53
2021/01/11 02:44:43;;;;;;;49.47;23.50;;;;;;;-1.13;88.52;100291.47;5076510;28;20040;-54
2021/01/11 02:47:08;;;;;;;52.88;24.20;;;;;;;-1.07;88.58;100294.22;5076718;28;20497;-53
2021/01/11 02:49:39;;;;;;;47.30;20.35;;;;;;;-1.03;88.99;100284.06;5076661;28;20056;-54
2021/01/11 02:52:12;;;;;;;56.70;24.58;;;;;;;-0.99;89.26;100290.19;5075832;28;20105;-53
2021/01/11 02:54:39;;;;;;;156.30;26.50;;;;;;;-0.97;89.90;100288.53;5075785;28;20076;-53
2021/01/11 02:57:12;;;;;;;85.85;22.52;;;;;;;-0.91;90.29;100280.09;5092439;28;20053;-53
2021/01/11 02:59:42;;;;;;;94.70;23.02;;;;;;;-0.86;90.38;100281.13;5108409;28;20048;-54
2021/01/11 03:02:08;;;;;;;118.95;22.27;;;;;;;-0.94;91.52;100270.63;5076077;28;20062;-53
2021/01/11 03:04:34;;;;;;;208.32;23.40;;;;;;;-0.85;91.55;100277.69;5075636;28;20060;-53
2021/01/11 03:07:01;;;;;;;274.15;29.00;;;;;;;-0.77;91.19;100279.69;5076380;28;20048;-53
2021/01/11 03:09:28;;;;;;;197.95;26.83;;;;;;;-0.76;91.13;100276.25;5109051;28;20048;-53
2021/01/11 03:11:53;;;;;;;88.07;21.63;;;;;;;-0.69;91.01;100277.31;5076095;28;20517;-54
2021/01/11 03:14:19;;;;;;;167.25;23.80;;;;;;;-0.67;90.81;100274.78;5076118;28;20051;-53
2021/01/11 03:16:45;;;;;;;187.93;21.77;;;;;;;-0.76;91.15;100278.84;5076366;28;20044;-53
2021/01/11 03:19:11;;;;;;;199.20;21.52;;;;;;;-0.85;91.40;100280.28;5075898;28;20399;-54
2021/01/11 03:21:37;;;;;;;93.65;20.23;;;;;;;-0.82;91.51;100280.38;5077113;28;20076;-53
2021/01/11 03:24:07;;;;;;;111.47;22.45;;;;;;;-0.85;91.58;100283.72;5076247;28;20045;-53
2021/01/11 03:26:34;;;;;;;94.10;20.90;;;;;;;-0.96;91.73;100279.97;5075143;28;20067;-53
2021/01/11 03:29:01;;;;;;;115.20;20.45;;;;;;;-0.95;92.11;100281.72;5075404;28;20426;-53
2021/01/11 03:31:26;;;;;;;278.63;25.52;;;;;;;-0.98;92.03;100286.75;5075238;28;20040;-53
2021/01/11 03:33:52;;;;;;;114.47;19.73;;;;;;;-0.98;91.50;100285.06;5075908;28;20117;-53
2021/01/11 03:36:18;;;;;;;123.20;18.63;;;;;;;-0.99;91.40;100277.31;5108627;28;20048;-53
2021/01/11 03:38:44;;;;;;;73.43;18.15;;;;;;;-0.90;91.40;100284.44;5058584;28;20040;-53
2021/01/11 03:41:10;;;;;;;68.45;19.40;;;;;;;-0.90;91.16;100277.59;5075859;28;20119;-53
2021/01/11 03:43:37;;;;;;;68.95;20.25;;;;;;;-0.89;91.34;100276.75;5108837;28;20071;-53
2021/01/11 03:46:03;;;;;;;76.32;22.50;;;;;;;-0.77;91.27;100269.38;5075165;28;20119;-54
2021/01/11 03:48:29;;;;;;;89.25;22.33;;;;;;;-0.75;91.17;100257.44;5075801;28;20430;-53
2021/01/11 03:50:55;;;;;;;58.08;18.48;;;;;;;-0.74;91.22;100260.88;5075757;28;20045;-53
2021/01/11 03:53:21;;;;;;;62.55;18.90;;;;;;;-0.64;90.99;100264.59;5108840;28;20053;-53
2021/01/11 03:55:47;;;;;;;45.80;19.30;;;;;;;-0.76;91.02;100254.81;5074788;28;20056;-53
2021/01/11 03:58:13;;;;;;;45.20;19.40;;;;;;;-0.67;91.39;100254.22;5075622;28;20045;-54
2021/01/11 04:00:38;;;;;;;46.67;18.88;;;;;;;-0.68;91.17;100253.34;5075675;28;20114;-53
2021/01/11 04:03:04;;;;;;;46.85;18.30;;;;;;;-0.61;91.03;100246.66;5075521;28;20133;-53
2021/01/11 04:05:30;;;;;;;37.30;17.30;;;;;;;-0.56;90.87;100252.78;5075893;28;20052;-53
2021/01/11 04:07:56;;;;;;;42.50;18.30;;;;;;;-0.43;90.05;100248.84;5075285;28;20339;-53
2021/01/11 04:10:23;;;;;;;36.55;17.25;;;;;;;-0.47;90.14;100246.19;5076091;28;20151;-53
2021/01/11 04:12:49;;;;;;;51.83;19.83;;;;;;;-0.35;89.81;100232.75;5075806;28;20048;-53
2021/01/11 04:15:15;;;;;;;39.15;18.20;;;;;;;-0.36;89.60;100241.28;5075482;28;20049;-53
2021/01/11 04:17:41;;;;;;;33.90;17.52;;;;;;;-0.36;89.31;100243.00;5074538;28;20044;-53
2021/01/11 04:20:07;;;;;;;34.78;17.45;;;;;;;-0.38;89.49;100235.25;5075675;28;20052;-53
2021/01/11 04:22:34;;;;;;;33.45;15.98;;;;;;;-0.27;89.49;100235.53;5074573;28;20429;-53
2021/01/11 04:24:59;;;;;;;35.38;16.52;;;;;;;-0.33;89.05;100237.94;5075423;28;20048;-53
2021/01/11 04:27:25;;;;;;;34.30;15.38;;;;;;;-0.29;89.09;100238.06;5075353;28;20131;-54
2021/01/11 04:29:51;;;;;;;35.63;17.35;;;;;;;-0.28;88.69;100229.50;5074538;28;20044;-54
2021/01/11 04:32:17;;;;;;;36.90;17.52;;;;;;;-0.24;88.94;100233.03;5075282;28;20056;-53
2021/01/11 04:34:43;;;;;;;34.40;16.52;;;;;;;-0.26;88.53;100227.84;5075350;28;20037;-53
2021/01/11 04:37:09;;;;;;;36.45;16.73;;;;;;;-0.28;88.30;100223.50;5075854;28;20048;-53
2021/01/11 04:39:35;;;;;;;32.55;15.88;;;;;;;-0.25;88.20;100233.88;5075495;28;20052;-53
2021/01/11 04:42:02;;;;;;;33.85;16.02;;;;;;;-0.22;88.03;100222.78;5060901;28;20341;-53
2021/01/11 04:44:29;;;;;;;32.88;15.65;;;;;;;-0.25;87.82;100229.59;5078823;28;20044;-53
2021/01/11 04:46:54;;;;;;;30.70;15.68;;;;;;;-0.22;87.54;100223.66;5094943;28;20033;-53
2021/01/11 04:49:20;;;;;;;33.10;16.35;;;;;;;-0.27;87.11;100220.94;5078995;28;20059;-53
2021/01/11 04:51:46;;;;;;;36.22;17.33;;;;;;;-0.34;87.09;100228.47;5078070;28;20364;-53
2021/01/11 04:54:13;;;;;;;32.47;16.85;;;;;;;-0.30;87.15;100220.00;5078058;28;20491;-53
2021/01/11 04:56:40;;;;;;;28.13;16.20;;;;;;;-0.35;87.09;100217.31;5077982;28;20352;-53
2021/01/11 04:59:06;;;;;;;42.92;18.70;;;;;;;-0.31;87.16;100216.56;5078745;28;20049;-53
2021/01/11 05:01:32;;;;;;;37.20;20.23;;;;;;;-0.33;87.25;100220.78;5078539;28;20067;-53
2021/01/11 05:03:59;;;;;;;35.45;18.73;;;;;;;-0.31;87.21;100215.69;5111824;28;20048;-53
2021/01/11 05:06:25;;;;;;;34.30;18.45;;;;;;;-0.33;87.18;100213.06;5078361;28;20437;-53
2021/01/11 05:08:50;;;;;;;34.47;17.70;;;;;;;-0.30;87.04;100212.28;5078915;28;20055;-53
2021/01/11 05:11:16;;;;;;;31.77;17.20;;;;;;;-0.31;86.78;100208.84;5078324;28;20051;-53
2021/01/11 05:13:42;;;;;;;37.88;19.17;;;;;;;-0.34;86.61;100207.88;5078523;28;20115;-53
2021/01/11 05:16:14;;;;;;;34.67;18.30;;;;;;;-0.32;86.76;100208.81;5078472;28;20053;-53
2021/01/11 05:18:40;;;;;;;33.40;17.70;;;;;;;-0.30;86.60;100202.84;5078895;28;20052;-53
2021/01/11 05:21:07;;;;;;;32.30;17.52;;;;;;;-0.34;86.27;100201.03;5078430;28;20049;-53
2021/01/11 05:23:39;;;;;;;34.45;17.95;;;;;;;-0.38;86.36;100206.94;5078016;28;20075;-53
2021/01/11 05:26:14;;;;;;;33.92;18.23;;;;;;;-0.43;86.45;100203.38;5078386;28;20040;-53
2021/01/11 05:28:43;;;;;;;33.83;18.77;;;;;;;-0.43;86.58;100205.06;5093744;28;20044;-53
2021/01/11 05:31:09;;;;;;;38.83;18.80;;;;;;;-0.44;86.40;100199.06;5078209;28;20414;-53
2021/01/11 05:33:35;;;;;;;31.15;17.23;;;;;;;-0.43;86.50;100203.38;5078175;28;20044;-53
2021/01/11 05:36:12;;;;;;;32.10;17.30;;;;;;;-0.41;86.66;100204.28;5078088;28;20052;-53
2021/01/11 05:38:46;;;;;;;34.03;16.75;;;;;;;-0.40;86.59;100206.03;5093149;28;20048;-53
2021/01/11 05:41:16;;;;;;;39.30;21.33;;;;;;;-0.45;86.62;100199.91;5078025;28;20064;-53
2021/01/11 05:43:43;;;;;;;37.97;18.55;;;;;;;-0.45;86.93;100205.06;5061055;28;20053;-53
2021/01/11 05:46:26;;;;;;;40.20;19.90;;;;;;;-0.43;86.96;100205.06;5077879;28;20059;-53
2021/01/11 05:49:10;;;;;;;54.83;27.47;;;;;;;-0.41;86.75;100201.72;5077856;28;20098;-53
2021/01/11 05:51:37;;;;;;;74.65;38.63;;;;;;;-0.40;87.00;100215.44;5077370;28;20048;-53
2021/01/11 05:54:04;;;;;;;66.22;34.35;;;;;;;-0.35;86.90;100211.31;5077727;28;20044;-53
2021/01/11 05:56:57;;;;;;;51.85;26.90;;;;;;;-0.33;86.61;100214.78;5076831;28;20131;-53
2021/01/11 05:59:24;;;;;;;88.32;43.08;;;;;;;-0.36;86.97;100210.41;5077254;28;20441;-53
2021/01/11 06:01:50;;;;;;;161.88;72.53;;;;;;;-0.35;87.13;100212.16;5093165;28;20056;-53
2021/01/11 06:04:16;;;;;;;316.08;126.28;;;;;;;-0.30;86.79;100209.69;5077379;28;20040;-53
2021/01/11 06:06:42;;;;;;;141.30;59.90;;;;;;;-0.28;86.39;100213.19;5077460;28;20048;-53
2021/01/11 06:09:08;;;;;;;234.15;84.07;;;;;;;-0.24;86.07;100215.00;5077148;28;20433;-53
2021/01/11 06:11:37;;;;;;;96.00;41.65;;;;;;;-0.26;86.24;100224.38;5077099;28;20052;-53
2021/01/11 06:14:05;;;;;;;79.90;32.40;;;;;;;-0.39;86.32;100230.06;5077342;28;20109;-53
2021/01/11 06:16:31;;;;;;;53.90;24.63;;;;;;;-0.38;86.49;100222.38;5077036;28;20093;-53
2021/01/11 06:18:57;;;;;;;166.48;65.22;;;;;;;-0.33;86.21;100218.22;5076824;28;20040;-53
2021/01/11 06:21:23;;;;;;;137.80;58.80;;;;;;;-0.35;86.14;100234.47;5075983;28;20051;-53
2021/01/11 06:24:09;;;;;;;97.75;42.10;;;;;;;-0.35;86.50;100234.47;5075960;28;20063;-53
2021/01/11 06:26:36;;;;;;;83.53;36.65;;;;;;;-0.39;86.43;100232.63;5104096;28;20081;-53
2021/01/11 06:29:02;;;;;;;216.35;94.47;;;;;;;-0.32;86.61;100235.41;5076071;28;20345;-53
2021/01/11 06:31:34;;;;;;;143.77;67.82;;;;;;;-0.32;86.26;100231.97;5092802;28;20060;-53
2021/01/11 06:34:00;;;;;;;109.40;53.20;;;;;;;-0.29;86.32;100238.06;5076979;28;20044;-53
2021/01/11 06:36:33;;;;;;;77.32;42.92;;;;;;;-0.31;86.11;100238.84;5076889;28;20306;-53
2021/01/11 06:39:06;;;;;;;50.03;30.10;;;;;;;-0.30;86.22;100227.72;5076848;28;20045;-53
2021/01/11 06:41:32;;;;;;;42.95;23.67;;;;;;;-0.29;85.77;100224.34;5109867;28;20149;-53
2021/01/11 06:44:08;;;;;;;41.75;23.48;;;;;;;-0.36;86.23;100235.28;5076800;28;20064;-53
2021/01/11 06:46:43;;;;;;;52.38;24.77;;;;;;;-0.32;86.48;100226.84;5076785;28;20137;-53
2021/01/11 06:49:11;;;;;;;44.40;22.50;;;;;;;-0.33;86.66;100225.94;5076794;28;20048;-53
2021/01/11 06:51:43;;;;;;;43.97;22.85;;;;;;;-0.35;86.90;100232.75;5076685;28;20089;-53
2021/01/11 06:54:15;;;;;;;44.10;22.77;;;;;;;-0.33;87.01;100231.06;5075818;28;20048;-53
2021/01/11 06:56:42;;;;;;;36.47;20.02;;;;;;;-0.32;86.91;100227.69;5076959;28;20444;-54
2021/01/11 06:59:09;;;;;;;36.20;19.58;;;;;;;-0.31;86.98;100234.56;5076239;28;20344;-53
2021/01/11 07:01:36;;;;;;;46.03;24.55;;;;;;;-0.27;86.90;100228.66;5076330;28;20048;-53
2021/01/11 07:04:02;;;;;;;95.45;51.40;;;;;;;-0.29;87.01;100230.34;5075379;28;20098;-53
2021/01/11 07:06:34;;;;;;;68.95;44.10;;;;;;;-0.29;87.10;100238.06;5075235;28;20056;-53
2021/01/11 07:09:17;;;;;;;89.03;53.05;;;;;;;-0.26;87.06;100238.16;5075644;28;20386;-54
2021/01/11 07:11:47;;;;;;;56.03;30.90;;;;;;;-0.26;87.19;100238.16;5076470;28;20048;-53
2021/01/11 07:14:14;;;;;;;57.72;33.63;;;;;;;-0.26;87.48;100247.56;5076114;28;20357;-53
2021/01/11 07:16:45;;;;;;;72.05;44.38;;;;;;;-0.15;87.19;100245.28;5076317;28;20102;-53
2021/01/11 07:19:12;;;;;;;56.72;34.70;;;;;;;-0.12;87.08;100248.78;5075955;28;20045;-53
2021/01/11 07:21:38;;;;;;;91.60;50.08;;;;;;;-0.09;86.82;100253.16;5076083;28;20408;-53
2021/01/11 07:24:08;;;;;;;81.30;41.08;;;;;;;-0.07;86.48;100251.47;5076290;28;20045;-53
2021/01/11 07:26:34;;;;;;;50.83;26.83;;;;;;;-0.07;86.63;100244.59;5076184;28;20048;-53
2021/01/11 07:29:04;;;;;;;41.38;22.02;;;;;;;-0.12;86.54;100248.78;5075924;28;20049;-53
2021/01/11 07:31:33;;;;;;;50.03;26.23;;;;;;;-0.07;86.71;100249.75;5075497;28;20483;-52
2021/01/11 07:34:19;;;;;;;49.72;25.60;;;;;;;0.01;86.45;100246.53;5076124;28;20357;-53
2021/01/11 07:36:51;;;;;;;36.92;21.85;;;;;;;-0.05;86.19;100250.69;5075961;28;20127;-53
2021/01/11 07:39:30;;;;;;;41.92;21.92;;;;;;;-0.03;86.22;100251.59;5074750;28;20044;-53
2021/01/11 07:42:01;;;;;;;35.63;23.08;;;;;;;0.02;86.29;100249.13;5073593;28;20056;-53
2021/01/11 07:44:31;;;;;;;27.45;14.43;;;;;;;-0.03;86.46;100254.19;5074819;28;20052;-53
2021/01/11 07:47:00;;;;;;;29.02;15.70;;;;;;;-0.03;86.53;100248.16;5075279;28;20049;-53
2021/01/11 07:49:30;;;;;;;31.60;17.60;;;;;;;0.08;86.40;100251.84;5074457;28;20049;-53
2021/01/11 07:52:05;;;;;;;37.08;18.63;;;;;;;0.22;85.80;100249.59;5073969;28;20403;-53
2021/01/11 07:54:31;;;;;;;34.20;19.15;;;;;;;0.11;86.24;100245.91;5075327;28;20050;-53
2021/01/11 07:56:57;;;;;;;33.15;18.98;;;;;;;0.13;86.27;100252.84;5075519;28;20049;-53
2021/01/11 07:59:23;;;;;;;26.98;16.65;;;;;;;0.14;86.31;100249.44;5075418;28;20052;-53
2021/01/11 08:01:49;;;;;;;33.53;19.85;;;;;;;0.13;86.44;100247.69;5075009;28;20052;-53
2021/01/11 08:04:16;;;;;;;32.42;19.63;;;;;;;0.20;86.11;100249.56;5075916;28;20060;-53
2021/01/11 08:06:55;;;;;;;38.88;22.67;;;;;;;0.26;85.89;100253.13;5091740;28;20170;-53
2021/01/11 08:09:26;;;;;;;46.20;23.15;;;;;;;0.31;85.51;100254.09;5075011;28;20136;-53
2021/01/11 08:12:12;;;;;;;46.22;24.70;;;;;;;0.19;85.86;100259.81;5075867;28;20342;-53
2021/01/11 08:14:39;;;;;;;31.08;17.50;;;;;;;0.25;85.49;100261.69;5077200;28;20071;-53
2021/01/11 08:17:06;;;;;;;39.75;18.50;;;;;;;0.18;85.45;100261.53;5079421;28;20433;-52
2021/01/11 08:19:32;;;;;;;48.55;24.00;;;;;;;0.23;85.62;100264.25;5078284;28;20059;-53
2021/01/11 08:21:59;;;;;;;48.15;24.88;;;;;;;0.18;85.86;100271.84;5079480;28;20091;-53
2021/01/11 08:24:25;;;;;;;50.63;25.15;;;;;;;0.29;85.72;100264.34;5079442;28;20048;-54
2021/01/11 08:26:59;;;;;;;36.50;18.35;;;;;;;0.27;85.25;100255.75;5079378;28;20067;-54
2021/01/11 08:29:26;;;;;;;29.77;15.38;;;;;;;0.46;84.68;100267.34;5094837;28;20062;-53
2021/01/11 08:31:53;;;;;;;29.52;16.30;;;;;;;0.37;84.33;100274.88;5095047;28;20425;-54
2021/01/11 08:34:19;;;;;;;34.63;17.33;;;;;;;0.42;84.06;100269.00;5111760;28;20049;-53
2021/01/11 08:36:45;;;;;;;32.70;18.45;;;;;;;0.35;84.16;100271.38;5112076;28;20044;-53
2021/01/11 08:39:14;;;;;;;62.03;41.90;;;;;;;0.33;84.58;100268.78;5079128;28;20060;-53
2021/01/11 08:41:42;;;;;;;40.75;23.75;;;;;;;0.31;84.97;100260.13;5079051;28;20102;-53
2021/01/11 08:44:22;;;;;;;35.03;20.17;;;;;;;0.31;84.84;100259.25;5079071;28;20139;-53
2021/01/11 08:46:56;;;;;;;35.13;18.75;;;;;;;0.29;85.16;100256.63;5078228;28;20199;-53
2021/01/11 08:49:22;;;;;;;38.85;19.83;;;;;;;0.36;84.35;100261.13;5078715;28;20463;-53
2021/01/11 08:51:47;;;;;;;38.67;19.95;;;;;;;0.35;84.60;100261.06;5078103;28;20052;-53
2021/01/11 08:54:27;;;;;;;42.17;21.63;;;;;;;0.33;84.46;100268.78;5078942;28;20048;-53
2021/01/11 08:56:54;;;;;;;33.97;18.08;;;;;;;0.33;84.76;100273.06;5078607;28;20106;-53
2021/01/11 08:59:20;;;;;;;44.85;23.38;;;;;;;0.28;85.32;100270.34;5078776;28;20044;-53
2021/01/11 09:01:45;;;;;;;80.88;33.28;;;;;;;0.36;85.39;100271.44;5078336;28;20420;-53
2021/01/11 09:04:27;;;;;;;102.38;38.90;;;;;;;0.45;85.13;100274.19;5111665;28;20094;-53
2021/01/11 09:06:52;;;;;;;169.52;56.88;;;;;;;0.48;84.30;100275.97;5079541;28;20049;-53
2021/01/11 09:09:19;;;;;;;70.35;29.05;;;;;;;0.43;84.48;100270.72;5077406;28;20048;-53
2021/01/11 09:11:48;;;;;;;48.55;22.25;;;;;;;0.46;84.39;100273.38;5078570;28;20132;-53
2021/01/11 09:14:15;;;;;;;34.78;18.23;;;;;;;0.43;84.51;100275.00;5077701;28;20052;-53
2021/01/11 09:16:42;;;;;;;29.40;14.88;;;;;;;0.45;84.27;100270.75;5077359;28;20437;-53
2021/01/11 09:19:11;;;;;;;27.73;15.93;;;;;;;0.43;84.51;100272.44;5077962;28;20044;-53
2021/01/11 09:21:40;;;;;;;33.95;17.92;;;;;;;0.42;84.75;100268.09;5078136;28;20508;-53
2021/01/11 09:24:07;;;;;;;39.80;22.65;;;;;;;0.54;84.51;100268.38;5076751;28;20128;-53
2021/01/11 09:26:33;;;;;;;35.65;17.95;;;;;;;0.57;84.64;100265.88;5075168;28;20059;-53
2021/01/11 09:28:59;;;;;;;38.97;19.85;;;;;;;0.63;84.35;100266.03;5076051;28;20392;-53
2021/01/11 09:31:25;;;;;;;36.15;20.20;;;;;;;0.65;84.23;100266.03;5075924;28;20190;-53
2021/01/11 09:33:53;;;;;;;34.33;19.20;;;;;;;0.74;83.74;100257.66;5075954;28;20049;-53
2021/01/11 09:36:21;;;;;;;35.33;18.33;;;;;;;0.65;83.76;100263.47;5076197;28;20052;-53
2021/01/11 09:38:48;;;;;;;47.38;24.05;;;;;;;0.74;83.86;100262.81;5076607;28;20349;-53
2021/01/11 09:41:14;;;;;;;54.90;23.45;;;;;;;0.82;83.33;100262.16;5077775;28;20134;-53
2021/01/11 09:43:41;;;;;;;34.45;16.73;;;;;;;0.77;83.18;100263.72;5077651;28;20072;-53
2021/01/11 09:46:08;;;;;;;42.13;18.88;;;;;;;0.85;83.17;100259.63;5077876;28;20562;-53
2021/01/11 09:48:34;;;;;;;40.65;19.10;;;;;;;0.91;82.75;100249.44;5078128;28;20105;-53
2021/01/11 09:51:00;;;;;;;27.67;16.38;;;;;;;0.86;82.39;100258.78;5077516;28;20048;-53
2021/01/11 09:53:26;;;;;;;27.65;14.50;;;;;;;0.82;82.28;100249.25;5076907;28;20118;-53
2021/01/11 09:55:52;;;;;;;25.52;14.80;;;;;;;0.85;82.69;100258.75;5076814;28;20036;-54
2021/01/11 09:58:17;;;;;;;29.30;15.63;;;;;;;0.81;83.03;100250.06;5077605;28;20048;-53
2021/01/11 10:00:43;;;;;;;57.42;23.38;;;;;;;0.97;82.22;100247.81;5077431;28;20162;-53
2021/01/11 10:03:09;;;;;;;39.55;19.67;;;;;;;0.88;81.95;100248.50;5077142;28;20052;-53
2021/01/11 10:05:35;;;;;;;93.47;36.45;;;;;;;1.06;80.96;100242.84;5077054;28;20052;-53
2021/01/11 10:08:01;;;;;;;170.27;62.10;;;;;;;1.00;81.37;100247.88;5077159;28;20356;-53
2021/01/11 10:10:27;;;;;;;145.10;57.10;;;;;;;0.93;81.66;100249.47;5076579;28;20048;-53
2021/01/11 10:12:53;;;;;;;73.18;27.15;;;;;;;0.87;82.17;100251.91;5077130;28;20040;-53
2021/01/11 10:15:19;;;;;;;74.38;28.95;;;;;;;0.93;81.96;100252.91;5077301;28;20048;-53
2021/01/11 10:17:45;;;;;;;197.75;73.38;;;;;;;0.97;81.98;100246.09;5077221;28;20105;-53
2021/01/11 10:20:11;;;;;;;158.65;63.22;;;;;;;1.03;81.96;100245.38;5076936;28;20049;-54
2021/01/11 10:22:38;;;;;;;191.20;75.22;;;;;;;1.13;81.65;100249.88;5076803;28;20566;-54
2021/01/11 10:25:05;;;;;;;189.70;85.38;;;;;;;1.26;80.14;100241.53;5074987;28;20041;-53
2021/01/11 10:27:31;;;;;;;163.73;71.65;;;;;;;1.16;80.46;100245.63;5074840;28;20070;-53
2021/01/11 10:29:57;;;;;;;114.00;52.13;;;;;;;1.14;79.84;100246.47;5075143;28;20044;-53
2021/01/11 10:32:23;;;;;;;87.13;38.05;;;;;;;1.09;79.84;100241.19;5075143;28;20052;-53
2021/01/11 10:34:49;;;;;;;63.72;33.30;;;;;;;1.14;80.16;100242.16;5075050;28;20078;-53
2021/01/11 10:37:15;;;;;;;38.33;20.35;;;;;;;1.16;79.78;100240.47;5074675;28;20499;-53
2021/01/11 10:39:41;;;;;;;34.78;19.70;;;;;;;1.14;80.30;100231.84;5075081;28;20040;-53
2021/01/11 10:42:07;;;;;;;32.03;19.13;;;;;;;1.21;80.28;100238.00;5076602;28;20440;-53
2021/01/11 10:44:34;;;;;;;28.33;16.83;;;;;;;1.16;80.40;100229.28;5076670;28;20344;-53
2021/01/11 10:47:00;;;;;;;23.45;14.30;;;;;;;1.19;80.15;100229.34;5076735;28;20052;-54
2021/01/11 10:49:27;;;;;;;26.65;14.68;;;;;;;1.25;79.86;100224.31;5076755;28;20048;-53
2021/01/11 10:51:55;;;;;;;26.80;14.27;;;;;;;1.26;80.58;100226.03;5075112;28;20044;-53
2021/01/11 10:54:21;;;;;;;31.40;16.45;;;;;;;1.35;80.91;100222.78;5077452;28;20052;-54
2021/01/11 10:56:48;;;;;;;30.08;15.68;;;;;;;1.47;80.74;100217.84;5076645;28;20166;-54
2021/01/11 10:59:15;;;;;;;35.42;17.30;;;;;;;1.55;80.68;100211.09;5075665;28;20037;-54
2021/01/11 11:01:41;;;;;;;31.60;17.65;;;;;;;1.61;79.73;100210.34;5076348;28;20053;-54
2021/01/11 11:04:06;;;;;;;29.77;16.35;;;;;;;1.58;79.29;100205.13;5076030;28;20101;-54
2021/01/11 11:06:32;;;;;;;31.50;17.05;;;;;;;1.46;79.38;100212.63;5076193;28;20059;-54
2021/01/11 11:08:58;;;;;;;28.38;14.60;;;;;;;1.45;78.76;100201.44;5076479;28;20044;-54
2021/01/11 11:11:24;;;;;;;43.13;22.38;;;;;;;1.57;78.95;100203.38;5076706;28;20040;-54
2021/01/11 11:13:50;;;;;;;33.58;18.33;;;;;;;1.62;79.36;100200.00;5076153;28;20102;-54
2021/01/11 11:16:16;;;;;;;32.03;18.05;;;;;;;1.76;79.11;100195.09;5076348;28;20118;-53